createdAt,value
2022-10-02T00:00:43.940Z,6.10
2022-10-02T00:03:24.241Z,5.13
2022-10-02T00:06:05.436Z,6.15
2022-10-02T00:08:41.662Z,5.05
2022-10-02T00:11:44.022Z,5.85
2022-10-02T00:14:17.260Z,5.57
2022-10-02T00:16:52.765Z,4.97
2022-10-02T00:19:20.806Z,5.22
2022-10-02T00:22:18.430Z,5.25
2022-10-02T00:25:13.669Z,5.15
2022-10-02T00:28:12.727Z,5.20
2022-10-02T00:31:07.046Z,5.53
2022-10-02T00:33:51.868Z,4.35
2022-10-02T00:36:40.431Z,5.28
2022-10-02T00:39:25.870Z,5.22
2022-10-02T00:42:47.064Z,5.32
2022-10-02T00:45:41.552Z,5.90
2022-10-02T00:48:41.080Z,5.57
2022-10-02T00:52:05.650Z,4.63
2022-10-02T00:54:53.625Z,5.40
2022-10-02T00:57:47.954Z,5.30
2022-10-02T01:00:19.629Z,5.68
2022-10-02T01:03:07.226Z,5.03
2022-10-02T01:05:35.144Z,6.25
2022-10-02T01:08:02.505Z,4.82
2022-10-02T01:10:30.547Z,5.45
2022-10-02T01:12:58.866Z,6.00
2022-10-02T01:15:33.861Z,5.13
2022-10-02T01:18:02.310Z,5.35
2022-10-02T01:20:44.460Z,5.32
2022-10-02T01:23:54.590Z,4.55
2022-10-02T01:26:21.579Z,5.25
2022-10-02T01:28:48.764Z,4.68
2022-10-02T01:31:16.937Z,5.20
2022-10-02T01:33:45.326Z,5.60
2022-10-02T01:36:14.201Z,4.70
2022-10-02T01:38:42.681Z,5.25
2022-10-02T01:41:12.774Z,3.92
2022-10-02T01:43:48.822Z,4.65
2022-10-02T01:46:41.869Z,4.10
2022-10-02T01:49:17.306Z,3.65
2022-10-02T01:52:04.515Z,3.58
2022-10-02T01:54:56.754Z,3.97
2022-10-02T01:57:44.853Z,6.03
2022-10-02T02:00:19.467Z,6.07
2022-10-02T02:03:04.305Z,4.45
2022-10-02T02:06:03.130Z,4.78
2022-10-02T02:08:34.816Z,5.07
2022-10-02T02:11:12.768Z,4.55
2022-10-02T02:13:57.674Z,3.80
2022-10-02T02:16:24.717Z,4.30
2022-10-02T02:19:12.299Z,4.45
2022-10-02T02:21:46.401Z,3.70
2022-10-02T02:24:36.794Z,3.40
2022-10-02T02:27:05.569Z,3.80
2022-10-02T02:29:37.699Z,3.05
2022-10-02T02:32:09.146Z,3.23
2022-10-02T02:34:45.310Z,2.92
2022-10-02T02:37:19.126Z,3.13
2022-10-02T02:39:51.348Z,2.67
2022-10-02T02:42:25.840Z,3.08
2022-10-02T02:45:07.492Z,3.40
2022-10-02T02:47:56.605Z,2.90
2022-10-02T02:50:32.047Z,3.50
2022-10-02T02:53:17.184Z,3.67
2022-10-02T02:56:00.556Z,3.25
2022-10-02T02:58:52.297Z,3.60
2022-10-02T03:01:19.300Z,3.00
2022-10-02T03:03:46.295Z,3.10
2022-10-02T03:06:16.235Z,3.60
2022-10-02T03:08:44.686Z,4.67
2022-10-02T03:11:52.508Z,4.30
2022-10-02T03:14:44.500Z,5.47
2022-10-02T03:18:12.995Z,3.83
2022-10-02T03:21:27.166Z,3.10
2022-10-02T03:24:19.278Z,4.00
2022-10-02T03:27:23.048Z,4.70
2022-10-02T03:29:58.348Z,3.93
2022-10-02T03:32:27.754Z,3.10
2022-10-02T03:34:58.393Z,3.60
2022-10-02T03:37:26.083Z,3.37
2022-10-02T03:39:53.865Z,3.00
2022-10-02T03:42:25.800Z,3.00
2022-10-02T03:44:52.679Z,2.63
2022-10-02T03:47:19.781Z,3.40
2022-10-02T03:49:46.682Z,3.40
2022-10-02T03:52:21.065Z,3.17
2022-10-02T03:54:52.300Z,2.87
2022-10-02T03:57:24.170Z,3.20
2022-10-02T04:00:01.564Z,3.20
2022-10-02T04:02:54.976Z,4.60
2022-10-02T04:05:41.437Z,4.50
2022-10-02T04:08:45.684Z,4.25
2022-10-02T04:11:25.583Z,3.85
2022-10-02T04:14:18.538Z,3.80
2022-10-02T04:16:55.931Z,4.27
2022-10-02T04:19:30.057Z,4.83
2022-10-02T04:22:03.265Z,5.23
2022-10-02T04:24:59.511Z,4.30
2022-10-02T04:27:39.283Z,4.18
2022-10-02T04:30:12.284Z,3.87
2022-10-02T04:32:39.296Z,4.07
2022-10-02T04:35:31.926Z,3.53
2022-10-02T04:38:13.762Z,3.85
2022-10-02T04:41:01.193Z,3.90
2022-10-02T04:43:53.793Z,4.33
2022-10-02T04:47:28.269Z,3.90
2022-10-02T04:50:38.665Z,3.45
2022-10-02T04:53:43.258Z,2.90
2022-10-02T04:56:55.544Z,3.43
2022-10-02T04:59:34.175Z,4.50
2022-10-02T05:02:45.702Z,3.30
2022-10-02T05:05:41.247Z,4.10
2022-10-02T05:08:24.701Z,3.47
2022-10-02T05:11:40.883Z,2.87
2022-10-02T05:14:26.203Z,2.53
2022-10-02T05:17:11.527Z,2.67
2022-10-02T05:20:10.511Z,2.47
2022-10-02T05:22:49.277Z,2.60
2022-10-02T05:25:55.174Z,4.10
2022-10-02T05:28:42.208Z,4.03
2022-10-02T05:31:27.102Z,3.37
2022-10-02T05:34:16.197Z,3.67
2022-10-02T05:36:54.905Z,3.30
2022-10-02T05:39:27.882Z,2.77
2022-10-02T05:42:00.496Z,3.03
2022-10-02T05:44:41.842Z,2.87
2022-10-02T05:47:26.684Z,3.27
2022-10-02T05:50:12.702Z,3.30
2022-10-02T05:52:50.992Z,2.97
2022-10-02T05:55:34.697Z,3.80
2022-10-02T05:59:01.286Z,3.53
2022-10-02T06:01:33.749Z,3.70
2022-10-02T06:04:18.494Z,3.20
2022-10-02T06:06:56.394Z,4.03
2022-10-02T06:09:57.651Z,4.13
2022-10-02T06:12:38.708Z,4.20
2022-10-02T06:15:43.810Z,5.20
2022-10-02T06:18:22.469Z,5.53
2022-10-02T06:21:01.430Z,6.30
2022-10-02T06:23:48.020Z,5.50
2022-10-02T06:26:42.327Z,4.87
2022-10-02T06:29:32.877Z,5.57
2022-10-02T06:32:19.788Z,7.57
2022-10-02T06:34:48.218Z,6.57
2022-10-02T06:37:38.561Z,4.60
2022-10-02T06:40:53.181Z,5.00
2022-10-02T06:43:58.897Z,3.90
2022-10-02T06:46:27.970Z,4.07
2022-10-02T06:49:11.653Z,4.50
2022-10-02T06:52:19.052Z,3.67
2022-10-02T06:54:57.773Z,2.93
2022-10-02T06:57:48.619Z,3.30
2022-10-02T07:00:21.907Z,3.37
2022-10-02T07:03:32.764Z,3.40
2022-10-02T07:06:33.926Z,3.17
2022-10-02T07:09:22.624Z,3.63
2022-10-02T07:12:19.928Z,3.60
2022-10-02T07:15:10.117Z,4.13
2022-10-02T07:17:57.413Z,4.33
2022-10-02T07:20:59.661Z,5.03
2022-10-02T07:24:03.863Z,4.63
2022-10-02T07:27:15.042Z,4.70
2022-10-02T07:30:11.774Z,5.83
2022-10-02T07:32:52.913Z,7.20
2022-10-02T07:35:39.702Z,6.70
2022-10-02T07:38:18.586Z,4.70
2022-10-02T07:41:11.513Z,3.40
2022-10-02T07:44:19.672Z,4.13
2022-10-02T07:47:02.690Z,3.57
2022-10-02T07:49:55.852Z,3.53
2022-10-02T07:53:05.634Z,3.60
2022-10-02T07:55:35.860Z,4.13
2022-10-02T07:58:28.046Z,3.80
2022-10-02T08:01:13.474Z,2.97
2022-10-02T08:03:48.423Z,2.77
2022-10-02T08:06:16.578Z,3.07
2022-10-02T08:09:00.444Z,3.10
2022-10-02T08:11:48.604Z,3.30
2022-10-02T08:14:38.970Z,3.30
2022-10-02T08:17:35.700Z,3.80
2022-10-02T08:20:29.508Z,4.17
2022-10-02T08:23:29.263Z,4.67
2022-10-02T08:26:14.708Z,4.00
2022-10-02T08:28:52.689Z,4.50
2022-10-02T08:31:19.706Z,3.40
2022-10-02T08:33:46.992Z,3.87
2022-10-02T08:36:50.989Z,3.83
2022-10-02T08:40:15.991Z,4.13
2022-10-02T08:43:22.890Z,4.70
2022-10-02T08:46:56.452Z,4.93
2022-10-02T08:49:44.087Z,3.83
2022-10-02T08:53:13.077Z,3.20
2022-10-02T08:56:10.783Z,2.80
2022-10-02T08:58:48.509Z,2.20
2022-10-02T09:02:21.935Z,2.50
2022-10-02T09:05:10.479Z,2.30
2022-10-02T09:08:15.456Z,2.57
2022-10-02T09:11:24.929Z,2.30
2022-10-02T09:14:14.309Z,2.40
2022-10-02T09:17:21.514Z,2.40
2022-10-02T09:20:25.743Z,2.53
2022-10-02T09:23:30.079Z,2.20
2022-10-02T09:26:43.144Z,2.40
2022-10-02T09:29:34.605Z,2.10
2022-10-02T09:32:21.752Z,2.23
2022-10-02T09:35:34.761Z,2.33
2022-10-02T09:38:45.016Z,2.80
2022-10-02T09:42:28.179Z,2.40
2022-10-02T09:45:55.587Z,2.70
2022-10-02T09:48:53.488Z,2.00
2022-10-02T09:51:42.456Z,2.33
2022-10-02T09:55:04.200Z,2.30
2022-10-02T09:57:48.813Z,2.20
2022-10-02T10:00:43.326Z,2.40
2022-10-02T10:03:37.149Z,2.60
2022-10-02T10:06:53.557Z,2.40
2022-10-02T10:09:58.640Z,2.73
2022-10-02T10:13:08.867Z,3.33
2022-10-02T10:16:19.955Z,4.30
2022-10-02T10:19:23.727Z,2.50
2022-10-02T10:22:28.498Z,2.50
2022-10-02T10:25:28.374Z,2.23
2022-10-02T10:29:01.272Z,2.10
2022-10-02T10:31:59.150Z,2.70
2022-10-02T10:35:14.244Z,2.13
2022-10-02T10:38:28.491Z,1.93
2022-10-02T10:41:34.411Z,4.50
2022-10-02T10:44:21.938Z,4.43
2022-10-02T10:47:18.304Z,4.17
2022-10-02T10:50:24.726Z,4.87
2022-10-02T10:53:13.775Z,4.63
2022-10-02T10:56:26.168Z,3.90
2022-10-02T10:59:30.590Z,4.83
2022-10-02T11:02:38.644Z,9.13
2022-10-02T11:05:24.787Z,4.03
2022-10-02T11:08:36.628Z,2.40
2022-10-02T11:11:27.810Z,2.73
2022-10-02T11:14:13.682Z,2.70
2022-10-02T11:16:59.358Z,2.90
2022-10-02T11:19:53.971Z,3.30
2022-10-02T11:22:52.750Z,3.77
2022-10-02T11:25:49.032Z,4.20
2022-10-02T11:29:13.351Z,3.77
2022-10-02T11:31:57.746Z,5.20
2022-10-02T11:34:56.891Z,5.03
2022-10-02T11:37:59.607Z,3.60
2022-10-02T11:41:44.530Z,5.70
2022-10-02T11:44:59.219Z,4.63
2022-10-02T11:48:09.201Z,7.40
2022-10-02T11:51:18.451Z,5.30
2022-10-02T11:54:35.155Z,3.97
2022-10-02T11:57:20.669Z,3.30
2022-10-02T12:00:08.654Z,3.40
2022-10-02T12:02:57.868Z,4.10
2022-10-02T12:05:55.320Z,3.80
2022-10-02T12:08:54.764Z,3.80
2022-10-02T12:12:07.227Z,3.40
2022-10-02T12:15:04.043Z,3.77
2022-10-02T12:17:40.094Z,3.20
2022-10-02T12:21:10.283Z,4.57
2022-10-02T12:24:14.080Z,3.60
2022-10-02T12:27:10.005Z,3.40
2022-10-02T12:30:13.897Z,4.00
2022-10-02T12:33:17.731Z,4.37
2022-10-02T12:36:44.647Z,4.53
2022-10-02T12:39:22.238Z,5.83
2022-10-02T12:42:12.941Z,5.60
2022-10-02T12:45:02.234Z,4.97
2022-10-02T12:47:50.737Z,6.00
2022-10-02T12:50:55.230Z,6.03
2022-10-02T12:53:49.888Z,6.33
2022-10-02T12:56:54.124Z,7.37
2022-10-02T12:59:45.042Z,7.20
2022-10-02T13:02:59.038Z,7.27
2022-10-02T13:05:51.377Z,8.37
2022-10-02T13:08:30.152Z,7.70
2022-10-02T13:11:39.253Z,7.80
2022-10-02T13:14:55.833Z,8.52
2022-10-02T13:17:22.699Z,10.20
2022-10-02T13:20:40.143Z,10.43
2022-10-02T13:23:19.384Z,9.52
2022-10-02T13:26:04.169Z,9.90
2022-10-02T13:28:55.598Z,9.90
2022-10-02T13:32:09.658Z,9.68
2022-10-02T13:34:53.051Z,10.38
2022-10-02T13:38:13.132Z,9.45
2022-10-02T13:41:01.367Z,10.48
2022-10-02T13:43:58.673Z,10.70
2022-10-02T13:46:37.720Z,9.90
2022-10-02T13:49:46.841Z,11.05
2022-10-02T13:52:50.683Z,13.15
2022-10-02T13:55:26.881Z,10.82
2022-10-02T13:58:03.763Z,11.32
2022-10-02T14:01:05.160Z,12.30
2022-10-02T14:04:05.541Z,12.35
2022-10-02T14:06:42.963Z,10.95
2022-10-02T14:09:27.137Z,10.48
2022-10-02T14:12:34.367Z,10.57
2022-10-02T14:15:28.261Z,11.77
2022-10-02T14:18:07.406Z,21.08
2022-10-02T14:20:54.822Z,11.13
2022-10-02T14:24:47.062Z,9.30
2022-10-02T14:28:02.348Z,11.27
2022-10-02T14:30:52.061Z,10.60
2022-10-02T14:34:20.452Z,11.50
2022-10-02T14:37:10.497Z,10.15
2022-10-02T14:39:43.367Z,9.23
2022-10-02T14:42:58.844Z,10.13
2022-10-02T14:45:54.829Z,11.20
2022-10-02T14:49:00.711Z,10.38
2022-10-02T14:51:30.156Z,9.90
2022-10-02T14:54:12.073Z,11.88
2022-10-02T14:57:17.352Z,8.32
2022-10-02T15:00:11.789Z,6.82
2022-10-02T15:03:17.565Z,5.95
2022-10-02T15:06:10.335Z,6.10
2022-10-02T15:08:50.433Z,4.95
2022-10-02T15:11:48.068Z,5.07
2022-10-02T15:14:27.011Z,3.60
2022-10-02T15:17:22.528Z,3.08
2022-10-02T15:19:52.323Z,3.55
2022-10-02T15:22:28.431Z,2.58
2022-10-02T15:25:17.928Z,2.90
2022-10-02T15:28:24.525Z,2.65
2022-10-02T15:31:31.786Z,2.33
2022-10-02T15:34:24.008Z,2.00
2022-10-02T15:37:15.052Z,2.30
2022-10-02T15:39:41.895Z,2.20
2022-10-02T15:42:12.270Z,2.05
2022-10-02T15:45:03.812Z,2.35
2022-10-02T15:47:51.811Z,2.17
2022-10-02T15:50:40.899Z,1.85
2022-10-02T15:53:51.616Z,2.00
2022-10-02T15:56:37.044Z,1.95
2022-10-02T15:59:25.285Z,3.30
2022-10-02T16:02:25.537Z,5.13
2022-10-02T16:05:05.773Z,2.38
2022-10-02T16:07:44.535Z,5.72
2022-10-02T16:10:34.525Z,3.70
2022-10-02T16:13:29.667Z,3.72
2022-10-02T16:16:21.712Z,1.95
2022-10-02T16:19:05.173Z,2.17
2022-10-02T16:21:44.170Z,1.98
2022-10-02T16:24:53.174Z,2.08
2022-10-02T16:27:57.086Z,1.92
2022-10-02T16:30:26.690Z,2.25
2022-10-02T16:33:19.833Z,1.80
2022-10-02T16:36:16.751Z,2.40
2022-10-02T16:38:55.132Z,2.22
2022-10-02T16:41:25.008Z,2.20
2022-10-02T16:44:26.145Z,2.03
2022-10-02T16:47:10.526Z,2.78
2022-10-02T16:50:12.953Z,3.10
2022-10-02T16:53:10.905Z,2.88
2022-10-02T16:55:47.849Z,3.30
2022-10-02T16:58:25.451Z,4.00
2022-10-02T17:01:03.718Z,2.92
2022-10-02T17:04:08.007Z,2.63
2022-10-02T17:06:44.180Z,2.70
2022-10-02T17:09:14.826Z,2.58
2022-10-02T17:12:04.814Z,2.95
2022-10-02T17:14:46.716Z,2.90
2022-10-02T17:17:23.325Z,2.33
2022-10-02T17:20:29.380Z,3.08
2022-10-02T17:23:14.868Z,2.70
2022-10-02T17:26:22.848Z,3.17
2022-10-02T17:29:10.248Z,2.97
2022-10-02T17:31:59.008Z,2.60
2022-10-02T17:34:30.885Z,2.93
2022-10-02T17:37:07.917Z,3.50
2022-10-02T17:40:02.452Z,2.90
2022-10-02T17:42:41.678Z,3.83
2022-10-02T17:45:37.037Z,4.10
2022-10-02T17:48:40.117Z,5.17
2022-10-02T17:51:48.159Z,5.50
2022-10-02T17:54:23.262Z,6.30
2022-10-02T17:57:17.805Z,6.47
2022-10-02T18:00:10.225Z,7.33
2022-10-02T18:03:18.294Z,7.70
2022-10-02T18:06:32.426Z,9.17
2022-10-02T18:09:22.312Z,13.30
2022-10-02T18:12:39.376Z,19.07
2022-10-02T18:15:23.799Z,16.63
2022-10-02T18:18:28.637Z,12.30
2022-10-02T18:21:17.522Z,14.50
2022-10-02T18:24:23.144Z,14.87
2022-10-02T18:27:15.410Z,9.87
2022-10-02T18:30:14.624Z,6.83
2022-10-02T18:33:14.530Z,7.83
2022-10-02T18:36:02.807Z,8.73
2022-10-02T18:38:43.439Z,8.37
2022-10-02T18:41:52.722Z,6.23
2022-10-02T18:44:38.147Z,5.50
2022-10-02T18:47:34.359Z,5.50
2022-10-02T18:50:30.429Z,5.73
2022-10-02T18:53:45.593Z,5.50
2022-10-02T18:56:12.987Z,5.43
2022-10-02T18:59:23.586Z,6.53
2022-10-02T19:02:15.677Z,6.80
2022-10-02T19:05:22.770Z,5.83
2022-10-02T19:08:02.025Z,6.73
2022-10-02T19:10:40.323Z,6.20
2022-10-02T19:13:17.582Z,9.10
2022-10-02T19:15:47.183Z,13.57
2022-10-02T19:18:25.353Z,11.13
2022-10-02T19:21:15.427Z,10.27
2022-10-02T19:24:13.842Z,7.83
2022-10-02T19:26:46.147Z,6.63
2022-10-02T19:29:41.542Z,6.33
2022-10-02T19:32:19.202Z,5.20
2022-10-02T19:34:55.473Z,5.00
2022-10-02T19:37:23.463Z,4.60
2022-10-02T19:39:55.333Z,4.80
2022-10-02T19:42:28.211Z,4.97
2022-10-02T19:45:07.097Z,5.10
2022-10-02T19:47:42.966Z,5.60
2022-10-02T19:50:36.649Z,5.63
2022-10-02T19:53:15.320Z,5.37
2022-10-02T19:55:43.505Z,5.03
2022-10-02T19:58:22.321Z,5.60
2022-10-02T20:00:53.786Z,7.20
2022-10-02T20:03:24.141Z,7.30
2022-10-02T20:05:57.454Z,17.30
2022-10-02T20:08:51.900Z,16.00
2022-10-02T20:11:42.016Z,7.90
2022-10-02T20:14:29.830Z,5.73
2022-10-02T20:17:12.735Z,12.73
2022-10-02T20:19:51.890Z,14.27
2022-10-02T20:22:37.259Z,24.47
2022-10-02T20:25:14.013Z,19.83
2022-10-02T20:28:04.550Z,9.33
2022-10-02T20:30:41.757Z,6.37
2022-10-02T20:33:35.217Z,6.23
2022-10-02T20:36:38.088Z,4.87
2022-10-02T20:39:12.151Z,4.67
2022-10-02T20:41:52.531Z,4.80
2022-10-02T20:44:19.775Z,4.30
2022-10-02T20:47:07.037Z,4.43
2022-10-02T20:50:20.040Z,4.30
2022-10-02T20:53:23.068Z,4.97
2022-10-02T20:56:24.933Z,4.67
2022-10-02T20:59:13.358Z,5.50
2022-10-02T21:02:08.002Z,4.80
2022-10-02T21:05:21.023Z,4.83
2022-10-02T21:08:28.535Z,5.10
2022-10-02T21:11:18.804Z,5.30
2022-10-02T21:14:13.964Z,4.40
2022-10-02T21:17:13.158Z,3.70
2022-10-02T21:20:07.497Z,3.40
2022-10-02T21:23:11.526Z,3.23
2022-10-02T21:26:16.508Z,4.40
2022-10-02T21:28:55.634Z,4.77
2022-10-02T21:31:41.108Z,4.97
2022-10-02T21:34:35.920Z,5.20
2022-10-02T21:37:47.733Z,4.73
2022-10-02T21:40:48.544Z,5.10
2022-10-02T21:43:43.190Z,5.57
2022-10-02T21:47:00.602Z,5.87
2022-10-02T21:50:15.139Z,7.30
2022-10-02T21:53:12.276Z,6.80
2022-10-02T21:56:13.273Z,6.20
2022-10-02T21:58:52.422Z,5.67
2022-10-02T22:01:42.760Z,4.77
2022-10-02T22:04:58.356Z,5.00
2022-10-02T22:07:52.753Z,5.27
2022-10-02T22:10:32.629Z,5.03
2022-10-02T22:13:44.678Z,6.03
2022-10-02T22:16:22.140Z,5.93
2022-10-02T22:19:53.903Z,7.07
2022-10-02T22:23:09.068Z,6.47
2022-10-02T22:26:20.385Z,6.17
2022-10-02T22:28:59.476Z,7.03
2022-10-02T22:32:28.226Z,7.50
2022-10-02T22:35:21.814Z,7.23
2022-10-02T22:38:09.919Z,5.60
2022-10-02T22:40:52.395Z,4.60
2022-10-02T22:43:30.597Z,4.10
2022-10-02T22:46:09.144Z,4.50
2022-10-02T22:48:46.563Z,5.10
2022-10-02T22:51:25.648Z,5.13
2022-10-02T22:54:27.023Z,5.30
2022-10-02T22:57:08.695Z,5.23
2022-10-02T23:00:01.734Z,5.40
2022-10-02T23:02:52.339Z,5.50
2022-10-02T23:05:42.271Z,5.90
2022-10-02T23:09:02.572Z,5.53
2022-10-02T23:11:41.718Z,6.10
2022-10-02T23:14:43.972Z,4.00
2022-10-02T23:17:24.418Z,3.70
2022-10-02T23:20:27.420Z,5.37
2022-10-02T23:23:06.168Z,6.00
2022-10-02T23:25:51.046Z,6.57
2022-10-02T23:28:35.154Z,5.87
2022-10-02T23:31:16.792Z,6.67
2022-10-02T23:34:01.741Z,6.30
2022-10-02T23:36:54.986Z,6.30
2022-10-02T23:39:50.593Z,6.20
2022-10-02T23:42:27.173Z,6.27
2022-10-02T23:45:19.607Z,6.60
2022-10-02T23:48:01.546Z,5.93
2022-10-02T23:50:50.740Z,4.83
2022-10-02T23:53:51.844Z,3.50
2022-10-02T23:57:00.008Z,3.37
2022-10-02T23:59:59.357Z,3.77
